Time;durP1;ratioP1;P1;durP2;ratioP2;P2;SDS_P1;SDS_P2;PMS_P1;PMS_P2;Temp;Humidity;BMP_temperature;BMP_pressure;BME280_temperature;BME280_humidity;BME280_pressure;Samples;Min_cycle;Max_cycle;Signal;HPM_P1;HPM_P2
2021/12/30 00:00:04;;;;;;;15.40;14.50;;;11.60;99.90;;;;;;5059210;28;20219;-75
2021/12/30 00:02:41;;;;;;;14.90;14.00;;;11.60;99.90;;;;;;5056183;28;20290;-76
2021/12/30 00:05:08;;;;;;;15.37;14.53;;;11.60;99.90;;;;;;5041851;28;20561;-76
2021/12/30 00:07:35;;;;;;;15.60;14.70;;;11.50;99.90;;;;;;5041919;28;20276;-76
2021/12/30 00:10:05;;;;;;;15.20;14.40;;;11.50;99.90;;;;;;5062374;28;20223;-76
2021/12/30 00:12:32;;;;;;;15.30;14.50;;;11.50;99.90;;;;;;5052077;28;20691;-76
2021/12/30 00:14:59;;;;;;;15.10;14.30;;;11.50;99.90;;;;;;5066008;28;20190;-76
2021/12/30 00:17:26;;;;;;;15.20;14.40;;;11.50;99.90;;;;;;5055416;28;20196;-76
2021/12/30 00:19:53;;;;;;;15.10;14.30;;;11.50;99.90;;;;;;5051830;28;20695;-76
2021/12/30 00:22:20;;;;;;;15.20;14.40;;;11.50;99.90;;;;;;5043234;28;20215;-76
2021/12/30 00:24:47;;;;;;;15.30;14.50;;;11.40;99.90;;;;;;5069933;28;20195;-76
2021/12/30 00:27:15;;;;;;;15.20;14.27;;;11.40;99.90;;;;;;5043664;28;20214;-76
2021/12/30 00:29:42;;;;;;;15.17;14.37;;;11.40;99.90;;;;;;5051556;28;20701;-76
2021/12/30 00:32:09;;;;;;;15.10;14.30;;;11.40;99.90;;;;;;5059401;28;20568;-76
2021/12/30 00:34:36;;;;;;;14.87;14.07;;;11.50;99.90;;;;;;5046768;28;20205;-76
2021/12/30 00:37:04;;;;;;;15.10;14.20;;;11.50;99.90;;;;;;5063301;28;20198;-76
2021/12/30 00:39:31;;;;;;;15.20;14.40;;;11.50;99.90;;;;;;5059669;28;20225;-76
2021/12/30 00:41:58;;;;;;;14.67;13.97;;;11.60;99.90;;;;;;5059001;28;20578;-76
2021/12/30 00:44:27;;;;;;;14.77;13.97;;;11.60;99.90;;;;;;5048511;28;20194;-76
2021/12/30 00:46:54;;;;;;;14.93;14.13;;;11.60;99.90;;;;;;5046096;28;20648;-76
2021/12/30 00:49:21;;;;;;;15.10;14.30;;;11.60;99.90;;;;;;5061061;28;20734;-76
2021/12/30 00:51:48;;;;;;;15.27;14.47;;;11.60;99.90;;;;;;5063703;28;20200;-76
2021/12/30 00:54:15;;;;;;;14.60;13.80;;;11.70;99.90;;;;;;5064799;28;20571;-76
2021/12/30 00:56:42;;;;;;;14.47;13.77;;;11.70;99.90;;;;;;5060635;28;20193;-76
2021/12/30 00:59:09;;;;;;;14.27;13.57;;;11.70;99.90;;;;;;5056956;28;20215;-76
2021/12/30 01:01:38;;;;;;;14.27;13.57;;;11.70;99.90;;;;;;5054791;28;20191;-76
2021/12/30 01:04:05;;;;;;;14.60;13.90;;;11.70;99.90;;;;;;5040623;28;20228;-76
2021/12/30 01:06:32;;;;;;;14.60;13.80;;;11.70;99.90;;;;;;5054637;28;20196;-76
2021/12/30 01:09:00;;;;;;;14.90;14.00;;;11.70;99.90;;;;;;5055942;28;20214;-76
2021/12/30 01:11:27;;;;;;;15.83;15.03;;;11.70;99.90;;;;;;5065176;28;20188;-76
2021/12/30 01:14:01;;;;;;;14.37;13.67;;;11.80;99.90;;;;;;5048567;28;20197;-76
2021/12/30 01:16:30;;;;;;;14.33;13.63;;;11.70;99.90;;;;;;5041941;28;20291;-76
2021/12/30 01:19:14;;;;;;;14.20;13.50;;;11.70;99.90;;;;;;5047267;28;20409;-76
2021/12/30 01:21:42;;;;;;;14.30;13.60;;;11.70;99.90;;;;;;5051692;28;20207;-76
2021/12/30 01:24:09;;;;;;;14.53;13.70;;;11.70;99.90;;;;;;5063180;28;20207;-76
2021/12/30 01:26:36;;;;;;;14.00;13.30;;;11.60;99.90;;;;;;5060607;28;20195;-76
2021/12/30 01:29:03;;;;;;;14.03;13.30;;;11.60;99.90;;;;;;5042196;28;20242;-76
2021/12/30 01:31:30;;;;;;;14.27;13.37;;;11.50;99.90;;;;;;5036305;28;20675;-76
2021/12/30 01:33:59;;;;;;;14.10;13.40;;;11.40;99.90;;;;;;5062525;28;20610;-76
2021/12/30 01:36:27;;;;;;;11.60;11.00;;;11.40;99.90;;;;;;5053685;28;20196;-77
2021/12/30 01:38:54;;;;;;;4.33;4.07;;;11.30;99.90;;;;;;5043223;28;20210;-76
2021/12/30 01:41:22;;;;;;;4.47;4.17;;;11.30;99.90;;;;;;5055193;28;20659;-76
2021/12/30 01:43:49;;;;;;;4.60;4.40;;;11.20;99.90;;;;;;5060202;28;20301;-76
2021/12/30 01:46:18;;;;;;;5.63;5.33;;;11.20;99.90;;;;;;5066735;28;20209;-76
2021/12/30 01:48:45;;;;;;;4.10;3.90;;;11.10;99.90;;;;;;5051569;28;20218;-76
2021/12/30 01:51:14;;;;;;;4.10;3.90;;;11.10;99.90;;;;;;5051254;28;20223;-76
2021/12/30 01:53:41;;;;;;;7.40;7.00;;;11.10;99.90;;;;;;5069042;28;20191;-76
2021/12/30 01:56:08;;;;;;;6.30;6.00;;;11.20;99.90;;;;;;5049594;28;20664;-76
2021/12/30 01:58:36;;;;;;;4.13;3.80;;;11.20;99.90;;;;;;5061579;28;20219;-76
2021/12/30 02:01:04;;;;;;;3.87;3.60;;;11.20;99.90;;;;;;5062264;28;20198;-76
2021/12/30 02:03:31;;;;;;;14.77;14.00;;;11.20;99.90;;;;;;5041865;28;20215;-76
2021/12/30 02:05:58;;;;;;;14.03;13.33;;;11.20;99.90;;;;;;5058096;28;20196;-76
2021/12/30 02:08:26;;;;;;;4.43;4.23;;;11.20;99.90;;;;;;5061231;28;20536;-76
2021/12/30 02:10:53;;;;;;;6.17;5.67;;;11.20;99.90;;;;;;5062104;28;20543;-76
2021/12/30 02:13:21;;;;;;;3.73;3.43;;;11.10;99.90;;;;;;5052862;28;20195;-76
2021/12/30 02:15:50;;;;;;;4.33;4.03;;;11.10;99.90;;;;;;5046448;28;20203;-76
2021/12/30 02:18:17;;;;;;;3.30;3.10;;;11.10;99.90;;;;;;5064673;28;20590;-76
2021/12/30 02:20:48;;;;;;;3.70;3.50;;;11.10;99.90;;;;;;5058326;28;20205;-76
2021/12/30 02:23:19;;;;;;;4.63;4.33;;;11.10;99.90;;;;;;5045220;28;20580;-76
2021/12/30 02:25:48;;;;;;;4.50;4.30;;;11.10;99.90;;;;;;5053343;28;20225;-76
2021/12/30 02:28:17;;;;;;;8.37;7.93;;;11.10;99.90;;;;;;5069144;28;20229;-76
2021/12/30 02:30:45;;;;;;;9.97;9.10;;;11.10;99.90;;;;;;5053217;28;20195;-75
2021/12/30 02:33:13;;;;;;;7.43;7.03;;;11.10;99.90;;;;;;5061183;28;20191;-76
2021/12/30 02:35:40;;;;;;;8.63;8.13;;;11.10;99.90;;;;;;5066082;28;20198;-76
2021/12/30 02:38:08;;;;;;;14.77;14.03;;;11.10;99.90;;;;;;5055906;28;20622;-76
2021/12/30 02:40:38;;;;;;;7.20;6.70;;;11.10;99.90;;;;;;5059921;28;20202;-76
2021/12/30 02:43:08;;;;;;;8.27;7.83;;;11.10;99.90;;;;;;5045338;28;20218;-76
2021/12/30 02:45:35;;;;;;;7.00;6.60;;;11.10;99.90;;;;;;5054874;28;20286;-76
2021/12/30 02:48:02;;;;;;;3.73;3.53;;;11.10;99.90;;;;;;5060651;28;20309;-76
2021/12/30 02:50:29;;;;;;;3.40;3.23;;;11.10;99.90;;;;;;5024415;28;20202;-76
2021/12/30 02:52:56;;;;;;;6.00;5.70;;;11.10;99.90;;;;;;5064213;28;20191;-76
2021/12/30 02:55:24;;;;;;;4.43;4.23;;;11.10;99.90;;;;;;5038157;28;20210;-76
2021/12/30 02:57:51;;;;;;;3.17;2.97;;;11.10;99.90;;;;;;5050054;28;20194;-76
2021/12/30 03:00:18;;;;;;;3.30;3.20;;;11.10;99.90;;;;;;5047337;28;20580;-76
2021/12/30 03:02:45;;;;;;;3.20;3.10;;;11.10;99.90;;;;;;5054538;28;20211;-76
2021/12/30 03:05:16;;;;;;;3.40;3.20;;;11.10;99.90;;;;;;5044085;28;20214;-76
2021/12/30 03:07:43;;;;;;;3.87;3.53;;;11.10;99.90;;;;;;5053045;28;20210;-76
2021/12/30 03:10:16;;;;;;;3.40;3.10;;;11.20;99.90;;;;;;5035353;28;20207;-76
2021/12/30 03:12:44;;;;;;;3.40;3.27;;;11.20;99.90;;;;;;5060535;28;20216;-76
2021/12/30 03:15:13;;;;;;;9.50;9.00;;;11.30;99.90;;;;;;5059228;28;20207;-76
2021/12/30 03:17:40;;;;;;;5.77;5.47;;;11.30;99.90;;;;;;5066847;28;20656;-76
2021/12/30 03:20:09;;;;;;;14.87;14.07;;;11.30;99.90;;;;;;5061004;28;20202;-76
2021/12/30 03:22:37;;;;;;;16.57;15.77;;;11.40;99.90;;;;;;5058040;28;20191;-75
2021/12/30 03:25:05;;;;;;;16.07;15.27;;;11.40;99.90;;;;;;5055251;28;20195;-76
2021/12/30 03:27:32;;;;;;;14.90;13.90;;;11.40;99.90;;;;;;5036282;28;20199;-76
2021/12/30 03:30:01;;;;;;;14.53;13.73;;;11.40;99.90;;;;;;5060137;28;20234;-76
2021/12/30 03:32:28;;;;;;;14.10;13.30;;;11.50;99.90;;;;;;5034460;28;20201;-76
2021/12/30 03:34:55;;;;;;;15.37;14.57;;;11.50;99.90;;;;;;5049378;28;20667;-76
2021/12/30 03:37:24;;;;;;;14.20;13.50;;;11.50;99.90;;;;;;5037869;28;20199;-76
2021/12/30 03:39:51;;;;;;;13.73;13.03;;;11.50;99.90;;;;;;5061522;28;20281;-78
2021/12/30 03:42:18;;;;;;;15.17;14.37;;;11.50;99.90;;;;;;5058842;28;20204;-77
2021/12/30 03:44:46;;;;;;;15.67;14.87;;;11.50;99.90;;;;;;5043017;28;20607;-76
2021/12/30 03:47:17;;;;;;;13.90;13.00;;;11.60;99.90;;;;;;5060943;28;20192;-77
2021/12/30 03:49:46;;;;;;;14.70;14.00;;;11.60;99.90;;;;;;5056886;28;20216;-76
2021/12/30 03:52:18;;;;;;;14.50;13.70;;;11.60;99.90;;;;;;5046104;28;20641;-79
2021/12/30 03:54:46;;;;;;;15.00;14.30;;;11.60;99.90;;;;;;5053413;28;20192;-79
2021/12/30 03:57:13;;;;;;;14.30;13.60;;;11.60;99.90;;;;;;5036149;28;20195;-76
2021/12/30 03:59:40;;;;;;;14.23;13.43;;;11.60;99.90;;;;;;5033600;28;20219;-76
2021/12/30 04:02:07;;;;;;;14.07;13.37;;;11.60;99.90;;;;;;5059716;28;20212;-76
2021/12/30 04:04:36;;;;;;;14.07;13.27;;;11.60;99.90;;;;;;5034366;28;20593;-76
2021/12/30 04:07:03;;;;;;;14.40;13.70;;;11.60;99.90;;;;;;5045297;28;20210;-76
2021/12/30 04:09:30;;;;;;;14.40;13.70;;;11.60;99.90;;;;;;5051139;28;20588;-76
2021/12/30 04:11:57;;;;;;;14.10;13.40;;;11.60;99.90;;;;;;5058688;28;20675;-76
2021/12/30 04:14:26;;;;;;;14.00;13.20;;;11.60;99.90;;;;;;5051648;28;20195;-77
2021/12/30 04:16:54;;;;;;;14.53;13.80;;;11.60;99.90;;;;;;5062422;28;20555;-76
2021/12/30 04:19:21;;;;;;;15.00;14.10;;;11.60;99.90;;;;;;5062252;28;20588;-76
2021/12/30 04:21:53;;;;;;;14.83;14.03;;;11.60;99.90;;;;;;5062627;28;20196;-76
2021/12/30 04:24:20;;;;;;;14.63;13.93;;;11.60;99.90;;;;;;5058986;28;20502;-76
2021/12/30 04:26:47;;;;;;;14.93;14.03;;;11.60;99.90;;;;;;5062837;28;20614;-76
2021/12/30 04:29:14;;;;;;;14.97;14.17;;;11.60;99.90;;;;;;5047355;28;20230;-76
2021/12/30 04:31:41;;;;;;;14.33;13.63;;;11.60;99.90;;;;;;5063188;28;20687;-76
2021/12/30 04:34:08;;;;;;;13.90;13.20;;;11.60;99.90;;;;;;5048143;28;20204;-76
2021/12/30 04:36:35;;;;;;;14.60;13.70;;;11.60;99.90;;;;;;5050958;28;20207;-77
2021/12/30 04:39:04;;;;;;;14.40;13.70;;;11.60;99.90;;;;;;5064071;28;20230;-77
2021/12/30 04:41:31;;;;;;;14.37;13.67;;;11.60;99.90;;;;;;5052301;28;20214;-79
2021/12/30 04:43:58;;;;;;;7.90;7.50;;;11.60;99.90;;;;;;5043519;28;20207;-78
2021/12/30 04:46:25;;;;;;;5.40;5.10;;;11.60;99.90;;;;;;5058856;28;20199;-78
2021/12/30 04:48:55;;;;;;;4.47;4.27;;;11.60;99.90;;;;;;5036532;28;20219;-78
2021/12/30 04:51:22;;;;;;;4.57;4.20;;;11.60;99.90;;;;;;5060604;28;20199;-78
2021/12/30 04:53:49;;;;;;;7.20;6.80;;;11.60;99.90;;;;;;5036673;28;20256;-78
2021/12/30 04:56:17;;;;;;;5.80;5.50;;;11.60;99.90;;;;;;5040715;28;20209;-79
2021/12/30 04:58:44;;;;;;;5.73;5.33;;;11.60;99.90;;;;;;5025214;28;20597;-78
2021/12/30 05:01:11;;;;;;;3.77;3.57;;;11.60;99.90;;;;;;5035208;28;20210;-78
2021/12/30 05:03:38;;;;;;;3.13;2.93;;;11.60;99.90;;;;;;5056420;28;20219;-78
2021/12/30 05:06:05;;;;;;;3.50;3.20;;;11.60;99.90;;;;;;5030649;28;20204;-78
2021/12/30 05:08:32;;;;;;;3.30;3.20;;;11.60;99.90;;;;;;5054352;28;20215;-77
2021/12/30 05:10:59;;;;;;;3.70;3.50;;;11.60;99.90;;;;;;5054481;28;20204;-78
2021/12/30 05:13:29;;;;;;;7.93;7.53;;;11.60;99.90;;;;;;5044063;28;20196;-78
2021/12/30 05:15:56;;;;;;;14.60;13.80;;;11.60;99.90;;;;;;5036640;28;20198;-78
2021/12/30 05:18:30;;;;;;;5.17;4.77;;;11.60;99.90;;;;;;5038811;28;20223;-78
2021/12/30 05:20:58;;;;;;;7.20;6.73;;;11.60;99.90;;;;;;5034040;28;20218;-78
2021/12/30 05:23:25;;;;;;;4.60;3.30;;;11.60;99.90;;;;;;5051356;28;20210;-78
2021/12/30 05:25:52;;;;;;;3.60;3.40;;;11.60;99.90;;;;;;5060095;28;20202;-78
2021/12/30 05:28:19;;;;;;;3.70;3.50;;;11.60;99.90;;;;;;5049624;28;20223;-78
2021/12/30 05:30:47;;;;;;;4.27;4.00;;;11.70;99.90;;;;;;5043859;28;20203;-78
2021/12/30 05:33:14;;;;;;;3.70;3.40;;;11.70;99.90;;;;;;5036179;28;20226;-77
2021/12/30 05:35:41;;;;;;;5.40;3.00;;;11.70;99.90;;;;;;5055545;28;20195;-78
2021/12/30 05:38:09;;;;;;;5.47;4.30;;;11.70;99.90;;;;;;5045852;28;20220;-78
2021/12/30 05:40:36;;;;;;;4.87;4.63;;;11.70;99.90;;;;;;5065573;28;20199;-78
2021/12/30 05:43:03;;;;;;;6.87;6.37;;;11.70;99.90;;;;;;5057045;28;20199;-77
2021/12/30 05:45:33;;;;;;;6.37;6.07;;;11.60;99.90;;;;;;5039698;28;20471;-77
2021/12/30 05:48:02;;;;;;;9.40;8.83;;;11.70;99.90;;;;;;5036421;28;20226;-77
2021/12/30 05:50:31;;;;;;;9.13;8.63;;;11.70;99.90;;;;;;5032253;28;20188;-77
2021/12/30 05:52:58;;;;;;;9.30;8.70;;;11.60;99.90;;;;;;5035717;28;20255;-77
2021/12/30 05:55:26;;;;;;;8.10;7.70;;;11.60;99.90;;;;;;5048099;28;20199;-81
2021/12/30 05:57:54;;;;;;;9.10;8.60;;;11.70;99.90;;;;;;5056063;28;20189;-77
2021/12/30 06:00:24;;;;;;;8.90;8.40;;;11.60;99.90;;;;;;5053478;28;20678;-78
2021/12/30 06:02:51;;;;;;;7.20;6.80;;;11.60;99.90;;;;;;5040582;28;20202;-77
2021/12/30 06:05:19;;;;;;;7.10;6.70;;;11.70;99.90;;;;;;5053228;28;20578;-77
2021/12/30 06:07:47;;;;;;;7.30;6.90;;;11.60;99.90;;;;;;5052952;28;20197;-77
2021/12/30 06:10:13;;;;;;;8.87;8.33;;;11.70;99.90;;;;;;5033025;28;20203;-77
2021/12/30 06:12:42;;;;;;;8.30;7.80;;;11.70;99.90;;;;;;5052992;28;20199;-75
2021/12/30 06:15:11;;;;;;;7.43;7.03;;;11.70;99.90;;;;;;5037819;28;20200;-77
2021/12/30 06:17:38;;;;;;;8.20;7.80;;;11.70;99.90;;;;;;5058698;28;20205;-76
2021/12/30 06:20:07;;;;;;;8.50;8.00;;;11.70;99.90;;;;;;5038734;28;20213;-75
2021/12/30 06:22:35;;;;;;;9.30;8.80;;;11.70;99.90;;;;;;5052656;28;20195;-76
2021/12/30 06:25:04;;;;;;;9.47;8.97;;;11.70;99.90;;;;;;5052794;28;20220;-76
2021/12/30 06:27:33;;;;;;;10.70;10.10;;;11.80;99.90;;;;;;5047557;28;20199;-78
2021/12/30 06:29:59;;;;;;;11.20;10.57;;;11.80;99.90;;;;;;5056905;28;20220;-78
2021/12/30 06:32:26;;;;;;;11.33;10.73;;;11.80;99.90;;;;;;5059789;28;20204;-78
2021/12/30 06:34:53;;;;;;;10.37;9.87;;;11.80;99.90;;;;;;5060173;28;20193;-77
2021/12/30 06:37:20;;;;;;;3.77;3.57;;;11.80;99.90;;;;;;5034905;28;20208;-78
2021/12/30 06:39:48;;;;;;;7.33;6.93;;;11.80;99.90;;;;;;5054170;28;20216;-78
2021/12/30 06:42:15;;;;;;;3.23;3.03;;;11.80;99.90;;;;;;5056913;28;20204;-78
2021/12/30 06:44:42;;;;;;;7.03;6.63;;;11.90;99.90;;;;;;5049791;28;20209;-76
2021/12/30 06:47:09;;;;;;;3.40;3.20;;;11.90;99.90;;;;;;5044074;28;20204;-76
2021/12/30 06:49:37;;;;;;;3.97;3.77;;;11.90;99.90;;;;;;5053057;28;20726;-76
2021/12/30 06:52:05;;;;;;;9.73;9.23;;;11.90;99.90;;;;;;5038238;28;20262;-76
2021/12/30 06:54:32;;;;;;;3.10;2.90;;;11.90;99.90;;;;;;5053891;28;20565;-76
2021/12/30 06:57:02;;;;;;;5.80;5.50;;;11.90;99.90;;;;;;5038972;28;20196;-76
2021/12/30 06:59:30;;;;;;;9.47;8.83;;;11.90;99.90;;;;;;5052188;28;20265;-76
2021/12/30 07:01:57;;;;;;;7.53;7.03;;;11.90;99.90;;;;;;5065965;28;20200;-76
2021/12/30 07:04:25;;;;;;;3.30;3.10;;;11.90;99.90;;;;;;5037503;28;20305;-75
2021/12/30 07:06:52;;;;;;;6.03;5.73;;;11.90;99.90;;;;;;5059039;28;20195;-76
2021/12/30 07:09:19;;;;;;;3.17;2.97;;;11.90;99.90;;;;;;5038137;28;20227;-75
2021/12/30 07:11:48;;;;;;;3.37;3.17;;;11.90;99.90;;;;;;5053475;28;20188;-76
2021/12/30 07:14:18;;;;;;;5.27;4.97;;;12.00;99.90;;;;;;5056570;28;20607;-75
2021/12/30 07:16:45;;;;;;;11.73;11.13;;;11.90;99.90;;;;;;5051575;28;20189;-76
2021/12/30 07:19:11;;;;;;;3.13;2.93;;;11.90;99.90;;;;;;5057204;28;20291;-75
2021/12/30 07:21:39;;;;;;;3.13;3.03;;;11.90;99.90;;;;;;5055489;28;20192;-76
2021/12/30 07:24:07;;;;;;;3.83;3.10;;;12.00;99.90;;;;;;5052325;28;20203;-75
2021/12/30 07:26:34;;;;;;;6.67;6.30;;;11.90;99.90;;;;;;5057716;28;20205;-76
2021/12/30 07:29:01;;;;;;;6.63;6.23;;;12.00;99.90;;;;;;5038637;28;20251;-78
2021/12/30 07:31:30;;;;;;;8.00;7.47;;;12.00;99.90;;;;;;5051119;28;20201;-78
2021/12/30 07:33:57;;;;;;;7.20;6.80;;;12.00;99.90;;;;;;5051756;28;20208;-78
2021/12/30 07:36:24;;;;;;;12.13;11.43;;;12.00;99.90;;;;;;5043897;28;20207;-78
2021/12/30 07:38:51;;;;;;;8.03;7.63;;;12.00;99.90;;;;;;5048003;28;20596;-78
2021/12/30 07:41:18;;;;;;;11.10;10.47;;;12.10;99.90;;;;;;5052984;28;20198;-80
2021/12/30 07:43:45;;;;;;;5.70;5.40;;;12.10;99.90;;;;;;5052146;28;20203;-80
2021/12/30 07:46:12;;;;;;;9.43;8.93;;;12.10;99.90;;;;;;5026833;28;20229;-80
2021/12/30 07:48:41;;;;;;;12.80;12.10;;;12.10;99.90;;;;;;5035343;28;20221;-79
2021/12/30 07:51:08;;;;;;;6.50;6.10;;;12.10;99.90;;;;;;5034634;28;20204;-79
2021/12/30 07:53:35;;;;;;;7.40;6.87;;;12.20;99.90;;;;;;5039888;28;20205;-79
2021/12/30 07:56:02;;;;;;;5.13;4.83;;;12.20;99.90;;;;;;5036693;28;20196;-77
2021/12/30 07:58:30;;;;;;;3.73;3.53;;;12.20;99.90;;;;;;5045112;28;20277;-82
2021/12/30 08:00:57;;;;;;;4.20;4.00;;;12.20;99.90;;;;;;5059888;28;20205;-79
2021/12/30 08:03:24;;;;;;;5.10;4.80;;;12.20;99.90;;;;;;5050620;28;20192;-77
2021/12/30 08:05:52;;;;;;;5.57;5.17;;;12.20;99.90;;;;;;5045259;28;20737;-76
2021/12/30 08:08:19;;;;;;;6.87;6.47;;;12.20;99.90;;;;;;5050999;28;20223;-75
2021/12/30 08:10:47;;;;;;;4.77;4.50;;;12.30;99.90;;;;;;5053917;28;20192;-75
2021/12/30 08:13:14;;;;;;;9.00;8.50;;;12.30;99.90;;;;;;5049234;28;20214;-75
2021/12/30 08:15:41;;;;;;;8.10;7.60;;;12.40;99.90;;;;;;5042220;28;20206;-75
2021/12/30 08:18:09;;;;;;;10.93;10.33;;;12.40;99.90;;;;;;5042333;28;20226;-75
2021/12/30 08:20:36;;;;;;;4.67;4.43;;;12.40;99.90;;;;;;5056861;28;20662;-75
2021/12/30 08:23:04;;;;;;;4.13;3.77;;;12.50;99.90;;;;;;5062785;28;20308;-75
2021/12/30 08:25:32;;;;;;;3.60;3.40;;;12.60;99.90;;;;;;5062444;28;20230;-76
2021/12/30 08:27:59;;;;;;;3.10;2.90;;;12.60;99.90;;;;;;5037061;28;20204;-75
2021/12/30 08:30:26;;;;;;;3.10;3.00;;;12.70;99.90;;;;;;5044315;28;20215;-75
2021/12/30 08:32:53;;;;;;;3.20;3.00;;;12.80;99.90;;;;;;5060065;28;20687;-77
2021/12/30 08:35:22;;;;;;;3.10;2.90;;;12.80;99.90;;;;;;5061666;28;20687;-77
2021/12/30 08:37:49;;;;;;;4.70;4.30;;;12.80;99.90;;;;;;5056158;28;20201;-77
2021/12/30 08:40:18;;;;;;;13.30;12.60;;;12.80;99.90;;;;;;5054727;28;20197;-76
2021/12/30 08:42:46;;;;;;;13.53;12.77;;;12.80;99.90;;;;;;5061240;28;20201;-79
2021/12/30 08:45:14;;;;;;;13.73;12.93;;;12.80;99.90;;;;;;5063019;28;20222;-77
2021/12/30 08:47:41;;;;;;;12.43;11.80;;;12.90;99.90;;;;;;5055753;28;20267;-76
2021/12/30 08:50:11;;;;;;;13.20;12.40;;;12.90;99.90;;;;;;5049558;28;20210;-76
2021/12/30 08:52:39;;;;;;;12.90;12.10;;;12.90;99.90;;;;;;5057123;28;20222;-76
2021/12/30 08:55:06;;;;;;;13.07;12.37;;;13.00;99.90;;;;;;5041888;28;20279;-76
2021/12/30 08:57:38;;;;;;;3.87;3.57;;;12.90;99.90;;;;;;5046995;28;20207;-76
2021/12/30 09:00:11;;;;;;;7.37;6.97;;;13.00;99.90;;;;;;5051949;28;20201;-76
2021/12/30 09:02:38;;;;;;;8.33;7.83;;;13.00;99.90;;;;;;5035009;28;20284;-76
2021/12/30 09:05:06;;;;;;;11.93;11.23;;;13.00;99.90;;;;;;5057209;28;20219;-77
2021/12/30 09:07:33;;;;;;;6.10;5.70;;;13.10;99.90;;;;;;5055626;28;20189;-76
2021/12/30 09:10:00;;;;;;;5.17;4.80;;;13.10;99.90;;;;;;5041415;28;20263;-76
2021/12/30 09:12:27;;;;;;;5.70;5.20;;;13.10;99.90;;;;;;5053333;28;20205;-76
2021/12/30 09:14:55;;;;;;;4.80;4.50;;;13.10;99.90;;;;;;5053533;28;20187;-76
2021/12/30 09:17:22;;;;;;;5.53;5.13;;;13.20;99.90;;;;;;5060981;28;20216;-76
2021/12/30 09:19:49;;;;;;;6.00;5.50;;;13.30;99.90;;;;;;5055850;28;20226;-76
2021/12/30 09:22:16;;;;;;;11.27;10.63;;;13.50;99.90;;;;;;5035376;28;20207;-76
2021/12/30 09:24:43;;;;;;;10.20;9.13;;;13.60;99.90;;;;;;5062767;28;20229;-76
2021/12/30 09:27:10;;;;;;;15.73;14.93;;;13.60;99.90;;;;;;5063705;28;20677;-75
2021/12/30 09:29:38;;;;;;;14.60;13.90;;;13.70;99.90;;;;;;5059805;28;20223;-77
2021/12/30 09:32:07;;;;;;;14.10;13.40;;;13.80;99.90;;;;;;5055855;28;20210;-76
2021/12/30 09:34:34;;;;;;;13.70;13.00;;;13.90;99.90;;;;;;5061337;28;20199;-76
2021/12/30 09:37:01;;;;;;;12.90;12.20;;;14.00;99.90;;;;;;5038495;28;20210;-76
2021/12/30 09:39:27;;;;;;;12.70;12.00;;;14.10;99.90;;;;;;5031166;28;20225;-76
2021/12/30 09:41:54;;;;;;;12.07;11.47;;;14.20;99.90;;;;;;5065500;28;20194;-76
2021/12/30 09:44:22;;;;;;;12.83;12.13;;;14.20;99.90;;;;;;5062938;28;20191;-77
2021/12/30 09:46:49;;;;;;;13.47;12.77;;;14.30;99.90;;;;;;5058580;28;20276;-76
2021/12/30 09:49:22;;;;;;;13.10;12.40;;;14.30;99.90;;;;;;5061041;28;20222;-76
2021/12/30 09:51:50;;;;;;;12.30;11.60;;;14.40;99.90;;;;;;5057830;28;20195;-76
2021/12/30 09:54:17;;;;;;;11.03;10.43;;;14.40;99.90;;;;;;5055066;28;20203;-76
2021/12/30 09:56:45;;;;;;;10.77;10.17;;;14.40;99.90;;;;;;5040175;28;20222;-76
2021/12/30 09:59:13;;;;;;;10.87;10.27;;;14.50;99.90;;;;;;5036423;28;20775;-77
2021/12/30 10:01:42;;;;;;;11.53;10.93;;;14.40;99.90;;;;;;5030973;28;20205;-75
2021/12/30 10:04:11;;;;;;;11.23;10.63;;;14.50;99.90;;;;;;5050519;28;20198;-75
2021/12/30 10:06:44;;;;;;;11.80;11.15;;;14.70;99.90;;;;;;5052256;28;20447;-74
2021/12/30 10:09:13;;;;;;;3.17;2.43;;;14.70;99.90;;;;;;5036983;28;20299;-75
2021/12/30 10:11:45;;;;;;;4.13;3.93;;;14.80;99.90;;;;;;5066537;28;20734;-76
2021/12/30 10:14:12;;;;;;;2.40;2.30;;;14.80;99.90;;;;;;5061601;28;20672;-75
2021/12/30 10:16:39;;;;;;;6.37;6.07;;;14.90;99.90;;;;;;5058153;28;20474;-75
2021/12/30 10:19:06;;;;;;;2.50;2.40;;;14.90;99.90;;;;;;5058034;28;20587;-75
2021/12/30 10:21:36;;;;;;;2.40;2.20;;;14.90;99.90;;;;;;5032519;28;20207;-75
2021/12/30 10:24:07;;;;;;;12.10;11.40;;;14.90;99.90;;;;;;5046546;28;20257;-75
2021/12/30 10:26:49;;;;;;;12.00;11.40;;;14.90;99.90;;;;;;5036452;28;20219;-75
2021/12/30 10:29:17;;;;;;;12.30;11.70;;;15.00;99.90;;;;;;5049484;28;20598;-76
2021/12/30 10:31:47;;;;;;;12.37;11.57;;;15.10;99.90;;;;;;5035036;28;20260;-76
2021/12/30 10:34:16;;;;;;;12.47;11.77;;;15.10;99.90;;;;;;5065997;28;20326;-76
2021/12/30 10:36:46;;;;;;;12.40;11.70;;;15.00;99.90;;;;;;5060506;28;20195;-76
2021/12/30 10:39:22;;;;;;;12.27;11.67;;;15.00;99.90;;;;;;5062461;28;20223;-76
2021/12/30 10:41:51;;;;;;;12.27;11.47;;;15.00;99.90;;;;;;5057677;28;20290;-75
2021/12/30 10:44:20;;;;;;;11.60;11.00;;;15.00;99.90;;;;;;5054772;28;20191;-76
2021/12/30 10:46:48;;;;;;;11.83;11.23;;;15.10;99.90;;;;;;5043413;28;20217;-76
2021/12/30 10:49:22;;;;;;;12.20;11.50;;;15.10;99.90;;;;;;5053113;28;20776;-75
2021/12/30 10:51:50;;;;;;;11.70;11.10;;;15.10;99.90;;;;;;5039097;28;20285;-75
2021/12/30 10:54:22;;;;;;;11.40;10.80;;;15.00;99.90;;;;;;5063668;28;20234;-75
2021/12/30 10:56:55;;;;;;;11.43;10.83;;;15.10;99.90;;;;;;5044418;28;20441;-75
2021/12/30 10:59:25;;;;;;;11.70;11.10;;;15.00;99.90;;;;;;5045440;28;20227;-75
2021/12/30 11:01:56;;;;;;;11.60;10.90;;;15.00;99.90;;;;;;5040406;28;20630;-75
2021/12/30 11:04:33;;;;;;;10.40;9.90;;;15.00;99.90;;;;;;5038492;28;20200;-75
2021/12/30 11:07:00;;;;;;;10.80;10.10;;;15.00;99.90;;;;;;5040662;28;20256;-75
2021/12/30 11:09:29;;;;;;;11.30;10.60;;;14.90;99.90;;;;;;5040089;28;20220;-75
2021/12/30 11:11:58;;;;;;;10.07;9.50;;;14.90;99.90;;;;;;5066938;28;20193;-75
2021/12/30 11:14:27;;;;;;;9.17;8.67;;;14.90;99.90;;;;;;5060224;28;20203;-76
2021/12/30 11:17:06;;;;;;;9.50;9.00;;;14.80;99.90;;;;;;5060070;28;20192;-75
2021/12/30 11:19:36;;;;;;;10.30;9.70;;;14.80;99.90;;;;;;5060205;28;20260;-75
2021/12/30 11:22:06;;;;;;;12.73;12.10;;;14.80;99.90;;;;;;5036175;28;20201;-76
2021/12/30 11:24:35;;;;;;;2.30;2.20;;;14.80;99.90;;;;;;5044235;28;20285;-75
2021/12/30 11:27:05;;;;;;;2.30;2.20;;;14.80;99.90;;;;;;5041653;28;20210;-76
2021/12/30 11:29:36;;;;;;;2.23;2.17;;;14.80;99.90;;;;;;5049071;28;20271;-75
2021/12/30 11:32:05;;;;;;;2.10;2.00;;;14.90;99.90;;;;;;5054824;28;20205;-75
2021/12/30 11:34:33;;;;;;;2.30;2.20;;;14.90;99.90;;;;;;5059650;28;20662;-75
2021/12/30 11:37:01;;;;;;;2.40;2.30;;;15.00;99.90;;;;;;5059785;28;20195;-75
2021/12/30 11:39:28;;;;;;;2.53;2.33;;;15.00;99.90;;;;;;5038516;28;20317;-75
2021/12/30 11:42:00;;;;;;;2.40;2.30;;;15.10;99.90;;;;;;5033856;28;20209;-75
2021/12/30 11:44:42;;;;;;;2.60;2.30;;;15.10;99.90;;;;;;5055170;28;20198;-75
2021/12/30 11:47:30;;;;;;;2.30;2.20;;;15.10;99.90;;;;;;5062426;28;20217;-74
2021/12/30 11:50:02;;;;;;;2.47;2.37;;;15.20;99.90;;;;;;5040261;28;20606;-75
2021/12/30 11:52:55;;;;;;;2.60;2.50;;;15.30;99.90;;;;;;5052923;28;20186;-75
2021/12/30 11:55:45;;;;;;;2.47;2.37;;;15.40;99.90;;;;;;5059615;28;20548;-76
2021/12/30 11:58:50;;;;;;;9.73;9.30;;;15.50;99.90;;;;;;5057251;28;20296;-76
2021/12/30 12:01:37;;;;;;;6.10;5.80;;;15.50;99.90;;;;;;5035526;28;20210;-77
2021/12/30 12:04:09;;;;;;;2.53;2.43;;;15.50;99.90;;;;;;5048200;28;20201;-78
2021/12/30 12:06:40;;;;;;;2.60;2.50;;;15.50;99.90;;;;;;5037561;28;20215;-75
2021/12/30 12:09:12;;;;;;;7.73;7.33;;;15.60;99.90;;;;;;5054951;28;20747;-79
2021/12/30 12:12:01;;;;;;;12.03;11.40;;;15.60;99.90;;;;;;5037857;28;20266;-78
2021/12/30 12:14:30;;;;;;;2.33;2.23;;;15.60;99.90;;;;;;5052044;28;20582;-77
2021/12/30 12:17:00;;;;;;;2.50;2.40;;;15.60;99.90;;;;;;5034622;28;20197;-77
2021/12/30 12:19:37;;;;;;;2.33;2.23;;;15.60;99.90;;;;;;5051624;28;20264;-77
2021/12/30 12:22:07;;;;;;;2.43;2.33;;;15.50;99.90;;;;;;5038760;28;20202;-77
2021/12/30 12:24:37;;;;;;;2.80;2.60;;;15.40;99.90;;;;;;5044191;28;20198;-77
2021/12/30 12:27:07;;;;;;;2.40;2.30;;;15.30;99.90;;;;;;5043908;28;20600;-78
2021/12/30 12:29:37;;;;;;;2.40;2.30;;;15.30;99.90;;;;;;5052817;28;20218;-78
2021/12/30 12:32:10;;;;;;;2.40;2.30;;;15.30;99.90;;;;;;5060596;28;20199;-78
2021/12/30 12:34:40;;;;;;;2.40;2.30;;;15.30;99.90;;;;;;5050224;28;20203;-77
2021/12/30 12:37:49;;;;;;;2.20;2.10;;;15.30;99.90;;;;;;5066106;28;20195;-78
2021/12/30 12:40:37;;;;;;;2.77;2.57;;;15.40;99.90;;;;;;4999813;28;20204;-77
2021/12/30 12:43:16;;;;;;;2.50;2.40;;;15.50;99.90;;;;;;5042610;28;20618;-77
2021/12/30 12:46:02;;;;;;;2.43;2.33;;;15.50;99.90;;;;;;5051484;28;20218;-77